This demonstration page uses our WeatherBlox Daily Observations layout. Learn more.

39.29038, -76.61219

Hourly Observations for December 8, 2018

Temp ( °F °C ) Dew Point ( °F °C ) Humidity (%) Winds ( mph kmh ) Pressure ( in mb ) Visibility ( mi km ) Precip ( " mm )
12:54 am 00:54 undefined 32 0 14 -10 47 47 undefined N/A 30.45 1031 N/A 0 0
1:54 am 01:54 undefined 32 0 14 -10 47 47 undefined N/A 30.48 1032 N/A 0 0
2:54 am 02:54 undefined 31 -0.6 14 -10 49 49 undefined N/A 30.48 1032 N/A 0 0
3:54 am 03:54 undefined 29 -1.7 18 -7.8 63 63 undefined N/A 30.48 1032 N/A 0 0
4:54 am 04:54 undefined 29 -1.7 18 -7.8 63 63 undefined N/A 30.48 1032 N/A 0 0
5:54 am 05:54 undefined 29 -1.7 17 -8.3 61 61 undefined N/A 30.48 1032 N/A 0 0
6:54 am 06:54 undefined 28 -2.2 17 -8.3 63 63 undefined N/A 30.5 1033 N/A 0 0
7:54 am 07:54 undefined 29 -1.7 18 -7.8 63 63 undefined N/A 30.5 1033 N/A 0 0
8:54 am 08:54 undefined 31 -0.6 18 -7.8 59 59 undefined N/A 30.53 1034 N/A 0 0
9:54 am 09:54 undefined 34 1.1 17 -8.3 50 50 undefined N/A 30.56 1035 N/A 0 0
10:54 am 10:54 undefined 35 1.7 15 -9.4 44 44 undefined N/A 30.53 1034 N/A 0 0
11:54 am 11:54 undefined 36 2.2 16 -8.9 44 44 undefined N/A 30.5 1033 N/A 0 0
12:54 pm 12:54 undefined 38 3.3 15 -9.4 39 39 undefined N/A 30.48 1032 N/A 0 0
1:54 pm 13:54 undefined 38 3.3 14 -10 37 37 undefined N/A 30.48 1032 N/A 0 0
2:54 pm 14:54 undefined 38 3.3 14 -10 37 37 undefined N/A 30.48 1032 N/A 0 0
3:54 pm 15:54 undefined 38 3.3 14 -10 37 37 undefined N/A 30.5 1033 N/A 0 0
4:54 pm 16:54 undefined 36 2.2 15 -9.4 42 42 undefined N/A 30.5 1033 N/A 0 0
5:54 pm 17:54 undefined 35 1.7 16 -8.9 46 46 undefined N/A 30.53 1034 N/A 0 0
6:54 pm 18:54 undefined 36 2.2 15 -9.4 42 42 undefined N/A 30.53 1034 N/A 0 0
7:54 pm 19:54 undefined 35 1.7 15 -9.4 44 44 undefined N/A 30.53 1034 N/A 0 0
8:54 pm 20:54 undefined 34 1.1 15 -9.4 46 46 undefined N/A 30.56 1035 N/A 0 0
9:54 pm 21:54 undefined 34 1.1 16 -8.9 48 48 undefined N/A 30.56 1035 N/A 0 0
10:54 pm 22:54 undefined 34 1.1 16 -8.9 48 48 undefined N/A 30.56 1035 N/A 0 0
11:54 pm 23:54 undefined 33 0.6 16 -8.9 49 49 undefined N/A 30.56 1035 N/A 0 0

Powered by AerisWeather